sensor_id;sensor_type;location;lat;lon;timestamp;pressure;altitude;pressure_sealevel;temperature;humidity
9139;BME280;4604;48.616;9.548;2023-02-10T00:01:16;98737.56;;;-3.55;88.36
9139;BME280;4604;48.616;9.548;2023-02-10T00:03:45;98728.94;;;-3.54;88.43
9139;BME280;4604;48.616;9.548;2023-02-10T00:06:13;98734.09;;;-3.53;88.40
9139;BME280;4604;48.616;9.548;2023-02-10T00:08:40;98722.09;;;-3.55;88.72
9139;BME280;4604;48.616;9.548;2023-02-10T00:11:08;98730.66;;;-3.56;89.17
9139;BME280;4604;48.616;9.548;2023-02-10T00:13:37;98732.38;;;-3.52;88.79
9139;BME280;4604;48.616;9.548;2023-02-10T00:16:05;98726.38;;;-3.54;89.27
9139;BME280;4604;48.616;9.548;2023-02-10T00:18:33;98733.25;;;-3.55;89.69
9139;BME280;4604;48.616;9.548;2023-02-10T00:21:07;98731.56;;;-3.56;89.93
9139;BME280;4604;48.616;9.548;2023-02-10T00:23:34;98734.97;;;-3.54;90.05
9139;BME280;4604;48.616;9.548;2023-02-10T00:26:02;98729.78;;;-3.54;89.87
9139;BME280;4604;48.616;9.548;2023-02-10T00:28:29;98729.81;;;-3.57;89.89
9139;BME280;4604;48.616;9.548;2023-02-10T00:30:55;98720.34;;;-3.55;89.85
9139;BME280;4604;48.616;9.548;2023-02-10T00:33:22;98727.19;;;-3.48;89.67
9139;BME280;4604;48.616;9.548;2023-02-10T00:35:49;98719.47;;;-3.54;89.61
9139;BME280;4604;48.616;9.548;2023-02-10T00:38:17;98721.22;;;-3.57;90.06
9139;BME280;4604;48.616;9.548;2023-02-10T00:40:43;98725.53;;;-3.58;90.59
9139;BME280;4604;48.616;9.548;2023-02-10T00:43:10;98724.63;;;-3.54;90.12
9139;BME280;4604;48.616;9.548;2023-02-10T00:45:37;98723.81;;;-3.59;90.44
9139;BME280;4604;48.616;9.548;2023-02-10T00:48:03;98725.53;;;-3.61;90.13
9139;BME280;4604;48.616;9.548;2023-02-10T00:50:30;98728.97;;;-3.62;89.64
9139;BME280;4604;48.616;9.548;2023-02-10T00:52:56;98735.03;;;-3.63;90.10
9139;BME280;4604;48.616;9.548;2023-02-10T00:55:25;98736.72;;;-3.62;90.01
9139;BME280;4604;48.616;9.548;2023-02-10T00:57:51;98735.00;;;-3.60;89.75
9139;BME280;4604;48.616;9.548;2023-02-10T01:00:18;98728.97;;;-3.56;89.70
9139;BME280;4604;48.616;9.548;2023-02-10T01:02:44;98734.13;;;-3.59;89.87
9139;BME280;4604;48.616;9.548;2023-02-10T01:05:11;98739.31;;;-3.60;89.96
9139;BME280;4604;48.616;9.548;2023-02-10T01:07:38;98739.31;;;-3.63;90.94
9139;BME280;4604;48.616;9.548;2023-02-10T01:10:05;98737.59;;;-3.58;90.49
9139;BME280;4604;48.616;9.548;2023-02-10T01:12:33;98743.59;;;-3.61;90.87
9139;BME280;4604;48.616;9.548;2023-02-10T01:14:59;98741.00;;;-3.61;90.77
9139;BME280;4604;48.616;9.548;2023-02-10T01:17:26;98747.91;;;-3.61;91.16
9139;BME280;4604;48.616;9.548;2023-02-10T01:19:52;98760.81;;;-3.60;90.81
9139;BME280;4604;48.616;9.548;2023-02-10T01:22:19;98761.66;;;-3.61;91.01
9139;BME280;4604;48.616;9.548;2023-02-10T01:24:46;98763.41;;;-3.63;91.12
9139;BME280;4604;48.616;9.548;2023-02-10T01:27:13;98760.81;;;-3.60;91.31
9139;BME280;4604;48.616;9.548;2023-02-10T01:29:41;98753.06;;;-3.58;91.02
9139;BME280;4604;48.616;9.548;2023-02-10T01:32:07;98761.69;;;-3.62;90.92
9139;BME280;4604;48.616;9.548;2023-02-10T01:34:36;98754.81;;;-3.67;90.74
9139;BME280;4604;48.616;9.548;2023-02-10T01:37:02;98748.81;;;-3.72;91.33
9139;BME280;4604;48.616;9.548;2023-02-10T01:39:29;98729.94;;;-3.83;91.27
9139;BME280;4604;48.616;9.548;2023-02-10T01:41:55;98742.78;;;-3.74;91.41
9139;BME280;4604;48.616;9.548;2023-02-10T01:47:39;98735.94;;;-3.79;91.46
9139;BME280;4604;48.616;9.548;2023-02-10T01:50:06;98736.81;;;-3.79;91.21
9139;BME280;4604;48.616;9.548;2023-02-10T01:52:33;98745.41;;;-3.77;90.91
9139;BME280;4604;48.616;9.548;2023-02-10T01:55:04;98748.84;;;-3.81;91.35
9139;BME280;4604;48.616;9.548;2023-02-10T01:57:31;98750.56;;;-3.83;91.24
9139;BME280;4604;48.616;9.548;2023-02-10T02:00:00;98749.75;;;-3.85;91.39
9139;BME280;4604;48.616;9.548;2023-02-10T02:02:28;98748.00;;;-3.91;92.17
9139;BME280;4604;48.616;9.548;2023-02-10T02:04:59;98745.47;;;-3.97;92.71
9139;BME280;4604;48.616;9.548;2023-02-10T02:07:29;98727.44;;;-4.04;92.44
9139;BME280;4604;48.616;9.548;2023-02-10T02:09:59;98730.00;;;-4.01;92.51
9139;BME280;4604;48.616;9.548;2023-02-10T02:12:34;98721.41;;;-4.02;92.26
9139;BME280;4604;48.616;9.548;2023-02-10T02:15:10;98726.59;;;-4.08;92.51
9139;BME280;4604;48.616;9.548;2023-02-10T02:17:48;98730.03;;;-4.11;92.52
9139;BME280;4604;48.616;9.548;2023-02-10T02:23:39;98732.59;;;-4.12;91.96
9139;BME280;4604;48.616;9.548;2023-02-10T02:29:30;98736.94;;;-4.19;92.01
9139;BME280;4604;48.616;9.548;2023-02-10T02:32:04;98735.22;;;-4.17;91.59
9139;BME280;4604;48.616;9.548;2023-02-10T02:34:38;98736.09;;;-4.19;92.45
9139;BME280;4604;48.616;9.548;2023-02-10T02:37:10;98741.25;;;-4.21;92.97
9139;BME280;4604;48.616;9.548;2023-02-10T02:39:40;98747.22;;;-4.17;93.34
9139;BME280;4604;48.616;9.548;2023-02-10T02:42:17;98744.66;;;-4.20;94.00
9139;BME280;4604;48.616;9.548;2023-02-10T02:44:47;98754.97;;;-4.16;93.63
9139;BME280;4604;48.616;9.548;2023-02-10T02:47:27;98756.69;;;-4.18;93.95
9139;BME280;4604;48.616;9.548;2023-02-10T02:50:05;98760.97;;;-4.15;93.72
9139;BME280;4604;48.616;9.548;2023-02-10T02:52:45;98772.16;;;-4.13;93.57
9139;BME280;4604;48.616;9.548;2023-02-10T02:55:20;98780.75;;;-4.16;93.78
9139;BME280;4604;48.616;9.548;2023-02-10T02:57:54;98771.31;;;-4.21;93.78
9139;BME280;4604;48.616;9.548;2023-02-10T03:00:26;98774.75;;;-4.22;93.83
9139;BME280;4604;48.616;9.548;2023-02-10T03:02:56;98782.50;;;-4.24;93.27
9139;BME280;4604;48.616;9.548;2023-02-10T03:05:30;98777.34;;;-4.30;92.84
9139;BME280;4604;48.616;9.548;2023-02-10T03:07:57;98773.91;;;-4.31;92.35
9139;BME280;4604;48.616;9.548;2023-02-10T03:10:23;98779.06;;;-4.38;92.79
9139;BME280;4604;48.616;9.548;2023-02-10T03:12:50;98781.63;;;-4.40;92.45
9139;BME280;4604;48.616;9.548;2023-02-10T03:15:17;98776.47;;;-4.44;93.15
9139;BME280;4604;48.616;9.548;2023-02-10T03:17:44;98779.94;;;-4.41;92.87
9139;BME280;4604;48.616;9.548;2023-02-10T03:20:12;98779.94;;;-4.50;93.05
9139;BME280;4604;48.616;9.548;2023-02-10T03:22:40;98778.19;;;-4.63;92.23
9139;BME280;4604;48.616;9.548;2023-02-10T03:25:07;98786.78;;;-4.57;92.89
9139;BME280;4604;48.616;9.548;2023-02-10T03:27:34;98800.56;;;-4.53;93.72
9139;BME280;4604;48.616;9.548;2023-02-10T03:30:01;98810.00;;;-4.64;94.62
9139;BME280;4604;48.616;9.548;2023-02-10T03:32:27;98806.56;;;-4.72;95.52
9139;BME280;4604;48.616;9.548;2023-02-10T03:34:54;98806.56;;;-4.72;95.82
9139;BME280;4604;48.616;9.548;2023-02-10T03:37:22;98807.41;;;-4.74;96.39
9139;BME280;4604;48.616;9.548;2023-02-10T03:39:49;98803.13;;;-4.70;96.06
9139;BME280;4604;48.616;9.548;2023-02-10T03:42:15;98806.53;;;-4.71;96.51
9139;BME280;4604;48.616;9.548;2023-02-10T03:44:42;98807.41;;;-4.72;95.78
9139;BME280;4604;48.616;9.548;2023-02-10T03:47:08;98802.25;;;-4.72;95.39
9139;BME280;4604;48.616;9.548;2023-02-10T03:49:35;98806.53;;;-4.76;94.56
9139;BME280;4604;48.616;9.548;2023-02-10T03:52:02;98804.81;;;-4.78;93.98
9139;BME280;4604;48.616;9.548;2023-02-10T03:54:30;98807.41;;;-4.84;93.59
9139;BME280;4604;48.616;9.548;2023-02-10T03:56:57;98802.25;;;-4.89;93.55
9139;BME280;4604;48.616;9.548;2023-02-10T03:59:23;98808.25;;;-4.90;92.92
9139;BME280;4604;48.616;9.548;2023-02-10T04:01:50;98809.97;;;-4.92;93.04
9139;BME280;4604;48.616;9.548;2023-02-10T04:04:17;98808.25;;;-4.95;92.86
9139;BME280;4604;48.616;9.548;2023-02-10T04:06:44;98801.38;;;-4.94;92.72
9139;BME280;4604;48.616;9.548;2023-02-10T04:09:10;98801.38;;;-4.92;92.79
9139;BME280;4604;48.616;9.548;2023-02-10T04:11:38;98804.81;;;-4.97;92.69
9139;BME280;4604;48.616;9.548;2023-02-10T04:14:05;98810.81;;;-5.02;92.77
9139;BME280;4604;48.616;9.548;2023-02-10T04:16:31;98814.22;;;-5.06;92.92
9139;BME280;4604;48.616;9.548;2023-02-10T04:18:59;98809.06;;;-5.06;93.05
9139;BME280;4604;48.616;9.548;2023-02-10T04:21:26;98809.06;;;-5.03;93.85
9139;BME280;4604;48.616;9.548;2023-02-10T04:23:53;98810.81;;;-4.99;93.72
9139;BME280;4604;48.616;9.548;2023-02-10T04:26:21;98809.94;;;-4.98;93.48
9139;BME280;4604;48.616;9.548;2023-02-10T04:28:49;98794.47;;;-5.06;94.07
9139;BME280;4604;48.616;9.548;2023-02-10T04:31:15;98803.94;;;-4.99;93.98
9139;BME280;4604;48.616;9.548;2023-02-10T04:33:43;98801.38;;;-4.99;94.11
9139;BME280;4604;48.616;9.548;2023-02-10T04:36:09;98807.38;;;-5.01;94.88
9139;BME280;4604;48.616;9.548;2023-02-10T04:38:36;98807.38;;;-4.97;95.07
9139;BME280;4604;48.616;9.548;2023-02-10T04:41:03;98795.34;;;-4.98;95.06
9139;BME280;4604;48.616;9.548;2023-02-10T04:43:30;98803.06;;;-5.01;95.91
9139;BME280;4604;48.616;9.548;2023-02-10T04:45:58;98806.50;;;-4.96;95.85
9139;BME280;4604;48.616;9.548;2023-02-10T04:48:24;98811.69;;;-4.92;95.96
9139;BME280;4604;48.616;9.548;2023-02-10T04:50:51;98806.53;;;-4.91;96.31
9139;BME280;4604;48.616;9.548;2023-02-10T04:53:19;98812.53;;;-4.89;96.54
9139;BME280;4604;48.616;9.548;2023-02-10T04:55:45;98812.53;;;-4.86;96.49
9139;BME280;4604;48.616;9.548;2023-02-10T04:58:12;98809.13;;;-4.80;96.71
9139;BME280;4604;48.616;9.548;2023-02-10T05:00:39;98813.41;;;-4.79;96.94
9139;BME280;4604;48.616;9.548;2023-02-10T05:03:07;98815.13;;;-4.78;97.14
9139;BME280;4604;48.616;9.548;2023-02-10T05:05:34;98820.25;;;-4.78;96.96
9139;BME280;4604;48.616;9.548;2023-02-10T05:08:01;98827.13;;;-4.79;97.38
9139;BME280;4604;48.616;9.548;2023-02-10T05:10:28;98820.28;;;-4.75;97.08
9139;BME280;4604;48.616;9.548;2023-02-10T05:12:54;98825.44;;;-4.77;97.37
9139;BME280;4604;48.616;9.548;2023-02-10T05:15:21;98839.19;;;-4.78;97.38
9139;BME280;4604;48.616;9.548;2023-02-10T05:17:47;98838.31;;;-4.81;97.53
9139;BME280;4604;48.616;9.548;2023-02-10T05:20:15;98833.16;;;-4.75;98.41
9139;BME280;4604;48.616;9.548;2023-02-10T05:22:42;98843.47;;;-4.64;100.00
9139;BME280;4604;48.616;9.548;2023-02-10T05:25:09;98837.44;;;-4.63;100.00
9139;BME280;4604;48.616;9.548;2023-02-10T05:27:36;98841.75;;;-4.68;100.00
9139;BME280;4604;48.616;9.548;2023-02-10T05:30:05;98840.03;;;-4.71;100.00
9139;BME280;4604;48.616;9.548;2023-02-10T05:32:34;98853.78;;;-4.72;100.00
9139;BME280;4604;48.616;9.548;2023-02-10T05:35:01;98851.19;;;-4.77;99.41
9139;BME280;4604;48.616;9.548;2023-02-10T05:37:29;98849.47;;;-4.79;98.75
9139;BME280;4604;48.616;9.548;2023-02-10T05:39:55;98850.34;;;-4.80;99.34
9139;BME280;4604;48.616;9.548;2023-02-10T05:42:22;98855.47;;;-4.86;100.00
9139;BME280;4604;48.616;9.548;2023-02-10T05:44:49;98857.19;;;-4.87;100.00
9139;BME280;4604;48.616;9.548;2023-02-10T05:47:15;98867.47;;;-4.88;100.00
9139;BME280;4604;48.616;9.548;2023-02-10T05:49:42;98866.63;;;-4.92;99.73
9139;BME280;4604;48.616;9.548;2023-02-10T05:52:09;98870.03;;;-4.95;99.30
9139;BME280;4604;48.616;9.548;2023-02-10T05:54:37;98867.44;;;-5.01;98.62
9139;BME280;4604;48.616;9.548;2023-02-10T05:57:05;98869.13;;;-5.06;97.68
9139;BME280;4604;48.616;9.548;2023-02-10T05:59:32;98870.00;;;-5.08;96.98
9139;BME280;4604;48.616;9.548;2023-02-10T06:01:58;98866.53;;;-5.15;96.73
9139;BME280;4604;48.616;9.548;2023-02-10T06:04:25;98868.25;;;-5.22;96.22
9139;BME280;4604;48.616;9.548;2023-02-10T06:06:51;98876.78;;;-5.26;96.11
9139;BME280;4604;48.616;9.548;2023-02-10T06:09:18;98870.75;;;-5.29;96.00
9139;BME280;4604;48.616;9.548;2023-02-10T06:11:49;98879.34;;;-5.27;96.17
9139;BME280;4604;48.616;9.548;2023-02-10T06:14:16;98874.19;;;-5.30;96.55
9139;BME280;4604;48.616;9.548;2023-02-10T06:16:42;98872.50;;;-5.31;96.26
9139;BME280;4604;48.616;9.548;2023-02-10T06:19:09;98872.47;;;-5.30;96.18
9139;BME280;4604;48.616;9.548;2023-02-10T06:21:36;98880.22;;;-5.28;96.36
9139;BME280;4604;48.616;9.548;2023-02-10T06:24:03;98881.06;;;-5.28;96.55
9139;BME280;4604;48.616;9.548;2023-02-10T06:26:29;98875.91;;;-5.29;97.05
9139;BME280;4604;48.616;9.548;2023-02-10T06:28:58;98879.31;;;-5.32;97.41
9139;BME280;4604;48.616;9.548;2023-02-10T06:31:24;98882.78;;;-5.30;97.37
9139;BME280;4604;48.616;9.548;2023-02-10T06:33:51;98887.91;;;-5.36;97.56
9139;BME280;4604;48.616;9.548;2023-02-10T06:36:17;98882.75;;;-5.36;98.08
9139;BME280;4604;48.616;9.548;2023-02-10T06:38:44;98891.34;;;-5.32;98.48
9139;BME280;4604;48.616;9.548;2023-02-10T06:41:13;98903.41;;;-5.21;98.64
9139;BME280;4604;48.616;9.548;2023-02-10T06:43:39;98900.00;;;-5.13;99.77
9139;BME280;4604;48.616;9.548;2023-02-10T06:46:07;98906.88;;;-5.08;100.00
9139;BME280;4604;48.616;9.548;2023-02-10T06:48:35;98904.34;;;-5.03;100.00
9139;BME280;4604;48.616;9.548;2023-02-10T06:51:02;98911.22;;;-4.98;100.00
9139;BME280;4604;48.616;9.548;2023-02-10T06:53:29;98913.81;;;-4.93;100.00
9139;BME280;4604;48.616;9.548;2023-02-10T06:55:56;98911.22;;;-4.93;100.00
9139;BME280;4604;48.616;9.548;2023-02-10T06:58:23;98924.13;;;-4.88;100.00
9139;BME280;4604;48.616;9.548;2023-02-10T07:00:49;98924.16;;;-4.79;100.00
9139;BME280;4604;48.616;9.548;2023-02-10T07:03:17;98919.00;;;-4.79;100.00
9139;BME280;4604;48.616;9.548;2023-02-10T07:05:44;98921.56;;;-4.79;100.00
9139;BME280;4604;48.616;9.548;2023-02-10T07:08:10;98931.03;;;-4.77;100.00
9139;BME280;4604;48.616;9.548;2023-02-10T07:10:37;98927.59;;;-4.80;100.00
9139;BME280;4604;48.616;9.548;2023-02-10T07:13:04;98923.28;;;-4.81;100.00
9139;BME280;4604;48.616;9.548;2023-02-10T07:15:30;98929.31;;;-4.78;99.62
9139;BME280;4604;48.616;9.548;2023-02-10T07:17:57;98926.72;;;-4.73;99.15
9139;BME280;4604;48.616;9.548;2023-02-10T07:20:25;98924.16;;;-4.76;98.27
9139;BME280;4604;48.616;9.548;2023-02-10T07:22:52;98932.75;;;-4.71;98.25
9139;BME280;4604;48.616;9.548;2023-02-10T07:25:19;98928.44;;;-4.74;98.21
9139;BME280;4604;48.616;9.548;2023-02-10T07:27:46;98931.03;;;-4.66;98.26
9139;BME280;4604;48.616;9.548;2023-02-10T07:30:12;98934.53;;;-4.55;97.97
9139;BME280;4604;48.616;9.548;2023-02-10T07:32:39;98936.28;;;-4.46;97.65
9139;BME280;4604;48.616;9.548;2023-02-10T07:35:07;98939.72;;;-4.30;97.34
9139;BME280;4604;48.616;9.548;2023-02-10T07:37:35;98936.28;;;-4.18;97.65
9139;BME280;4604;48.616;9.548;2023-02-10T07:40:03;98944.91;;;-3.96;98.07
9139;BME280;4604;48.616;9.548;2023-02-10T07:42:30;98949.19;;;-3.80;99.42
9139;BME280;4604;48.616;9.548;2023-02-10T07:44:57;98949.19;;;-3.69;100.00
9139;BME280;4604;48.616;9.548;2023-02-10T07:47:24;98952.59;;;-3.55;100.00
9139;BME280;4604;48.616;9.548;2023-02-10T07:49:51;98958.59;;;-3.42;100.00
9139;BME280;4604;48.616;9.548;2023-02-10T07:52:19;98949.97;;;-3.32;100.00
9139;BME280;4604;48.616;9.548;2023-02-10T07:54:47;98955.13;;;-3.23;100.00
9139;BME280;4604;48.616;9.548;2023-02-10T07:57:14;98953.41;;;-3.14;99.85
9139;BME280;4604;48.616;9.548;2023-02-10T07:59:40;98953.38;;;-3.07;98.67
9139;BME280;4604;48.616;9.548;2023-02-10T08:02:07;98958.50;;;-2.97;98.51
9139;BME280;4604;48.616;9.548;2023-02-10T08:04:34;98955.00;;;-2.87;98.20
9139;BME280;4604;48.616;9.548;2023-02-10T08:07:01;98967.00;;;-2.74;97.36
9139;BME280;4604;48.616;9.548;2023-02-10T08:09:28;98962.66;;;-2.64;96.84
9139;BME280;4604;48.616;9.548;2023-02-10T08:11:56;98964.31;;;-2.52;96.42
9139;BME280;4604;48.616;9.548;2023-02-10T08:14:22;98960.81;;;-2.42;95.62
9139;BME280;4604;48.616;9.548;2023-02-10T08:16:49;98957.31;;;-2.33;95.12
9139;BME280;4604;48.616;9.548;2023-02-10T08:19:16;98955.53;;;-2.25;94.78
9139;BME280;4604;48.616;9.548;2023-02-10T08:21:42;98958.03;;;-2.13;94.10
9139;BME280;4604;48.616;9.548;2023-02-10T08:24:09;98951.09;;;-2.05;93.95
9139;BME280;4604;48.616;9.548;2023-02-10T08:26:36;98951.00;;;-1.94;92.94
9139;BME280;4604;48.616;9.548;2023-02-10T08:29:04;98949.22;;;-1.86;92.90
9139;BME280;4604;48.616;9.548;2023-02-10T08:31:32;98937.06;;;-1.76;92.88
9139;BME280;4604;48.616;9.548;2023-02-10T08:33:58;98944.75;;;-1.65;92.32
9139;BME280;4604;48.616;9.548;2023-02-10T08:36:25;98948.97;;;-1.55;92.03
9139;BME280;4604;48.616;9.548;2023-02-10T08:38:51;98951.44;;;-1.44;91.91
9139;BME280;4604;48.616;9.548;2023-02-10T08:41:18;98951.31;;;-1.29;91.65
9139;BME280;4604;48.616;9.548;2023-02-10T08:43:45;98953.75;;;-1.17;90.81
9139;BME280;4604;48.616;9.548;2023-02-10T08:46:13;98939.88;;;-1.11;90.41
9139;BME280;4604;48.616;9.548;2023-02-10T08:48:40;98949.16;;;-0.93;89.57
9139;BME280;4604;48.616;9.548;2023-02-10T08:51:08;98958.63;;;-0.88;88.60
9139;BME280;4604;48.616;9.548;2023-02-10T08:53:35;98967.00;;;-0.67;85.79
9139;BME280;4604;48.616;9.548;2023-02-10T08:56:04;98961.84;;;-0.70;86.24
9139;BME280;4604;48.616;9.548;2023-02-10T08:58:30;98957.47;;;-0.67;86.08
9139;BME280;4604;48.616;9.548;2023-02-10T09:00:57;98950.47;;;-0.58;84.75
9139;BME280;4604;48.616;9.548;2023-02-10T09:03:25;98964.00;;;-0.36;81.99
9139;BME280;4604;48.616;9.548;2023-02-10T09:05:53;98961.66;;;-0.56;83.16
9139;BME280;4604;48.616;9.548;2023-02-10T09:08:20;98969.38;;;-0.49;82.47
9139;BME280;4604;48.616;9.548;2023-02-10T09:10:47;98958.16;;;-0.54;83.08
9139;BME280;4604;48.616;9.548;2023-02-10T09:13:14;98967.72;;;-0.57;83.69
9139;BME280;4604;48.616;9.548;2023-02-10T09:15:41;98964.19;;;-0.50;83.76
9139;BME280;4604;48.616;9.548;2023-02-10T09:18:09;98968.34;;;-0.38;83.83
9139;BME280;4604;48.616;9.548;2023-02-10T09:20:37;98965.81;;;-0.45;83.66
9139;BME280;4604;48.616;9.548;2023-02-10T09:23:04;98974.28;;;-0.29;83.67
9139;BME280;4604;48.616;9.548;2023-02-10T09:25:31;98962.03;;;-0.20;82.83
9139;BME280;4604;48.616;9.548;2023-02-10T09:27:58;98964.44;;;-0.08;83.22
9139;BME280;4604;48.616;9.548;2023-02-10T09:30:25;98960.16;;;-0.11;83.00
9139;BME280;4604;48.616;9.548;2023-02-10T09:32:52;98961.59;;;0.09;83.20
9139;BME280;4604;48.616;9.548;2023-02-10T09:35:19;98970.03;;;0.21;81.52
9139;BME280;4604;48.616;9.548;2023-02-10T09:37:47;98962.94;;;0.33;81.57
9139;BME280;4604;48.616;9.548;2023-02-10T09:40:16;98955.88;;;0.41;81.93
9139;BME280;4604;48.616;9.548;2023-02-10T09:43:00;98970.47;;;0.50;81.76
9139;BME280;4604;48.616;9.548;2023-02-10T09:45:33;98965.13;;;0.59;81.43
9139;BME280;4604;48.616;9.548;2023-02-10T09:48:13;98956.97;;;0.77;81.72
9139;BME280;4604;48.616;9.548;2023-02-10T09:50:52;98969.56;;;1.00;81.48
9139;BME280;4604;48.616;9.548;2023-02-10T09:53:25;98970.09;;;1.16;79.97
9139;BME280;4604;48.616;9.548;2023-02-10T09:55:54;98957.66;;;1.31;79.14
9139;BME280;4604;48.616;9.548;2023-02-10T09:58:28;98960.88;;;1.43;77.48
9139;BME280;4604;48.616;9.548;2023-02-10T10:00:59;98962.03;;;1.28;77.26
9139;BME280;4604;48.616;9.548;2023-02-10T10:03:34;98960.88;;;1.43;75.07
9139;BME280;4604;48.616;9.548;2023-02-10T10:06:10;98969.34;;;1.53;75.71
9139;BME280;4604;48.616;9.548;2023-02-10T10:08:47;98974.38;;;1.61;74.52
9139;BME280;4604;48.616;9.548;2023-02-10T10:11:29;98975.00;;;1.74;74.29
9139;BME280;4604;48.616;9.548;2023-02-10T10:13:57;98970.38;;;1.85;73.50
9139;BME280;4604;48.616;9.548;2023-02-10T10:16:44;98968.59;;;1.87;73.18
9139;BME280;4604;48.616;9.548;2023-02-10T10:19:26;98980.41;;;2.02;72.71
9139;BME280;4604;48.616;9.548;2023-02-10T10:22:04;98981.59;;;1.88;72.13
9139;BME280;4604;48.616;9.548;2023-02-10T10:24:45;98974.09;;;2.12;71.97
9139;BME280;4604;48.616;9.548;2023-02-10T10:27:23;98978.06;;;2.28;69.97
9139;BME280;4604;48.616;9.548;2023-02-10T10:29:53;98974.44;;;2.34;69.94
9139;BME280;4604;48.616;9.548;2023-02-10T10:32:29;98978.03;;;2.30;70.41
9139;BME280;4604;48.616;9.548;2023-02-10T10:34:59;98969.16;;;2.37;69.31
9139;BME280;4604;48.616;9.548;2023-02-10T10:37:27;98958.84;;;2.32;65.99
9139;BME280;4604;48.616;9.548;2023-02-10T10:39:59;98950.25;;;2.29;65.91
9139;BME280;4604;48.616;9.548;2023-02-10T10:42:35;98953.22;;;2.49;65.83
9139;BME280;4604;48.616;9.548;2023-02-10T10:45:06;98954.38;;;2.72;65.42
9139;BME280;4604;48.616;9.548;2023-02-10T10:47:40;98952.06;;;2.94;64.21
9139;BME280;4604;48.616;9.548;2023-02-10T10:50:13;98945.03;;;2.96;64.20
9139;BME280;4604;48.616;9.548;2023-02-10T10:52:41;98943.13;;;3.03;64.15
9139;BME280;4604;48.616;9.548;2023-02-10T10:55:13;98940.19;;;3.15;61.63
9139;BME280;4604;48.616;9.548;2023-02-10T10:57:41;98935.50;;;3.26;61.21
9139;BME280;4604;48.616;9.548;2023-02-10T11:00:16;98932.47;;;3.41;61.52
9139;BME280;4604;48.616;9.548;2023-02-10T11:02:56;98926.91;;;3.52;58.92
9139;BME280;4604;48.616;9.548;2023-02-10T11:05:27;98925.69;;;3.64;54.52
9139;BME280;4604;48.616;9.548;2023-02-10T11:07:55;98931.66;;;3.68;53.32
9139;BME280;4604;48.616;9.548;2023-02-10T11:10:26;98932.38;;;3.73;49.65
9139;BME280;4604;48.616;9.548;2023-02-10T11:12:55;98931.00;;;3.61;49.33
9139;BME280;4604;48.616;9.548;2023-02-10T11:15:30;98930.78;;;3.69;51.90
9139;BME280;4604;48.616;9.548;2023-02-10T11:17:58;98929.00;;;3.69;52.39
9139;BME280;4604;48.616;9.548;2023-02-10T11:20:28;98940.59;;;3.89;55.36
9139;BME280;4604;48.616;9.548;2023-02-10T11:22:57;98934.16;;;4.00;56.95
9139;BME280;4604;48.616;9.548;2023-02-10T11:25:28;98924.25;;;4.37;54.04
9139;BME280;4604;48.616;9.548;2023-02-10T11:27:56;98920.63;;;4.14;53.73
9139;BME280;4604;48.616;9.548;2023-02-10T11:30:25;98916.97;;;4.20;52.23
9139;BME280;4604;48.616;9.548;2023-02-10T11:32:52;98922.06;;;3.96;52.83
9139;BME280;4604;48.616;9.548;2023-02-10T11:35:19;98921.53;;;4.13;53.94
9139;BME280;4604;48.616;9.548;2023-02-10T11:37:51;98922.50;;;4.11;54.29
9139;BME280;4604;48.616;9.548;2023-02-10T11:40:21;98922.63;;;4.33;52.61
9139;BME280;4604;48.616;9.548;2023-02-10T11:42:51;98924.03;;;4.16;53.29
9139;BME280;4604;48.616;9.548;2023-02-10T11:45:20;98924.28;;;4.08;53.13
9139;BME280;4604;48.616;9.548;2023-02-10T11:47:59;98919.44;;;4.24;53.55
9139;BME280;4604;48.616;9.548;2023-02-10T11:50:28;98920.38;;;3.95;53.48
9139;BME280;4604;48.616;9.548;2023-02-10T11:52:56;98910.50;;;4.05;54.24
9139;BME280;4604;48.616;9.548;2023-02-10T11:55:30;98910.78;;;4.22;54.74
9139;BME280;4604;48.616;9.548;2023-02-10T11:58:13;98903.13;;;4.43;53.39
9139;BME280;4604;48.616;9.548;2023-02-10T12:01:09;98905.59;;;4.47;54.76
9139;BME280;4604;48.616;9.548;2023-02-10T12:03:50;98904.44;;;4.56;53.24
9139;BME280;4604;48.616;9.548;2023-02-10T12:06:24;98901.28;;;4.46;53.42
9139;BME280;4604;48.616;9.548;2023-02-10T12:08:56;98899.53;;;4.70;52.63
9139;BME280;4604;48.616;9.548;2023-02-10T12:11:28;98899.00;;;4.61;54.04
9139;BME280;4604;48.616;9.548;2023-02-10T12:14:04;98898.97;;;4.62;53.81
9139;BME280;4604;48.616;9.548;2023-02-10T12:16:40;98901.72;;;4.83;52.82
9139;BME280;4604;48.616;9.548;2023-02-10T12:19:18;98903.41;;;4.60;52.90
9139;BME280;4604;48.616;9.548;2023-02-10T12:22:04;98898.25;;;4.59;53.21
9139;BME280;4604;48.616;9.548;2023-02-10T12:24:57;98905.38;;;4.79;52.46
9139;BME280;4604;48.616;9.548;2023-02-10T12:27:33;98901.38;;;4.68;52.31
9139;BME280;4604;48.616;9.548;2023-02-10T12:30:13;98894.66;;;4.61;52.39
9139;BME280;4604;48.616;9.548;2023-02-10T12:32:54;98891.38;;;4.80;51.86
9139;BME280;4604;48.616;9.548;2023-02-10T12:35:35;98899.72;;;4.66;50.51
9139;BME280;4604;48.616;9.548;2023-02-10T12:38:21;98881.91;;;4.52;50.60
9139;BME280;4604;48.616;9.548;2023-02-10T12:40:59;98887.63;;;4.63;51.25
9139;BME280;4604;48.616;9.548;2023-02-10T12:46:36;98877.06;;;4.90;49.45
9139;BME280;4604;48.616;9.548;2023-02-10T12:49:18;98874.66;;;4.84;48.13
9139;BME280;4604;48.616;9.548;2023-02-10T12:52:00;98881.59;;;4.61;48.30
9139;BME280;4604;48.616;9.548;2023-02-10T12:54:33;98873.13;;;4.53;48.89
9139;BME280;4604;48.616;9.548;2023-02-10T12:57:05;98869.94;;;4.70;50.49
9139;BME280;4604;48.616;9.548;2023-02-10T12:59:35;98871.94;;;4.87;49.48
9139;BME280;4604;48.616;9.548;2023-02-10T13:02:11;98874.06;;;5.01;47.59
9139;BME280;4604;48.616;9.548;2023-02-10T13:04:43;98874.94;;;5.00;47.28
9139;BME280;4604;48.616;9.548;2023-02-10T13:07:17;98871.66;;;5.18;47.19
9139;BME280;4604;48.616;9.548;2023-02-10T13:09:49;98869.56;;;5.04;47.57
9139;BME280;4604;48.616;9.548;2023-02-10T13:12:21;98863.63;;;4.99;49.02
9139;BME280;4604;48.616;9.548;2023-02-10T13:14:52;98859.59;;;5.14;48.40
9139;BME280;4604;48.616;9.548;2023-02-10T13:17:21;98855.06;;;4.96;48.15
9139;BME280;4604;48.616;9.548;2023-02-10T13:19:55;98858.13;;;5.07;47.62
9139;BME280;4604;48.616;9.548;2023-02-10T13:22:34;98853.41;;;5.17;47.77
9139;BME280;4604;48.616;9.548;2023-02-10T13:25:13;98854.38;;;5.14;47.73
9139;BME280;4604;48.616;9.548;2023-02-10T13:27:50;98846.16;;;5.00;47.15
9139;BME280;4604;48.616;9.548;2023-02-10T13:33:15;98854.47;;;4.87;45.94
9139;BME280;4604;48.616;9.548;2023-02-10T13:35:44;98843.41;;;4.81;45.71
9139;BME280;4604;48.616;9.548;2023-02-10T13:38:15;98850.88;;;4.90;46.88
9139;BME280;4604;48.616;9.548;2023-02-10T13:40:47;98839.81;;;4.83;46.53
9139;BME280;4604;48.616;9.548;2023-02-10T13:43:25;98842.19;;;4.89;46.12
9139;BME280;4604;48.616;9.548;2023-02-10T13:45:53;98837.03;;;4.88;45.73
9139;BME280;4604;48.616;9.548;2023-02-10T13:48:24;98837.47;;;4.99;47.20
9139;BME280;4604;48.616;9.548;2023-02-10T13:50:56;98847.19;;;5.19;47.82
9139;BME280;4604;48.616;9.548;2023-02-10T13:53:29;98852.19;;;5.25;46.74